map of AMD home
AMD - Airport
Location
City:  Ahmedabad, Gujarat, India
Name:Sardar Vallabhbhai Patel International Airport
ICAO:VAAH
IATA:AMD

Details
Type:Airport (Aerodrome, Airfield)
Use:Public/Civil, International (customs port of entry)
Latitude:2304'38"N (23.077242)
Longitude:7238'05"E (72.634650)
Datum:WGS 1984
Elevation:189 ft (58 m)
Variation:0.47E (WMM2015v2 magnetic declination)
0.04 annual change
Runways:1
Longest:11447 × 150 ft (3489 × 45.5 m), paved

Time
Time Zone:UTC+5:30
Local Time:

Weather
METAR:VAAH 041400Z 08002KT 3000 FU SCT080 26/14 Q1015 NOSIG
TAF:VAAH 041100Z 0412/0418 18004KT 4000 FU HZ FEW025 SCT080
BECMG 0501/0503 09006KT 2000 HZ
BECMG 0504/0506 07006T 5000 FU
BECMG 0512/0514 06006KT 4000 HZ

Related Locations
Nearby:
Farthest:IPC: 12123 mi / 19510 km
Easter Island (Isla de Pascua, Rapa Nui) [Mataveri Intl], VS, CL

Find:

   beyond  
but within

Other Information
Maps:
NOTAMs:
Links:
Sources:

  
  • flag of India
  

Sectional Chart

Flight Planning
at skyvector.com

Satellite Image

Google Maps Satellite view

 

Copyright © 2004-2019 Karl L. Swartz. All rights reserved.
The Great Circle Mapper name and logo are trademarks of the Great Circle Mapper.
All other trademarks mentioned herein belong to their respective owners.
Please see credits for attibutions and further copyright information.

  Follow gcmap on Facebook Follow gcmap on Twitter GCmap on LinkedIn

hCard Microformat

Geo Microformat